Meath Environmental Platform

Observations for Trim Market St

Time AQI Temp °C Hum % Pres Pa CO μg/m³ H₂S μg/m³ NO μg/m³ NO₂ μg/m³ O₃ μg/m³ SO₂ μg/m³ PM1 μg/m³ PM2.5 μg/m³ PM10 μg/m³
Friday 21 August 2026
13:04 2 31.3 30 66,064 0.01 0 1.42 26.21 77.06 0 0 2.78 3.06
13:03 2 31 30 66,050 0 0 1.31 28.17 84.34 0 0 2.78 3.06
13:02 2 30.8 30 66,039 0.26 0 1.3 24.54 79.41 0 0 2.78 3.06
13:00 2 30.4 30 66,013 0.03 0 1.3 19.96 74.19 0 0 2.76 3.04
12:56 2 30.1 31 66,001 0.05 0 1.24 17.63 72.1 0 0 2.73 3
12:53 2 30 32 65,977 0.13 0 1.43 16.5 69.11 0 0 3.24 3.57
12:50 2 29.6 31 65,975 0.25 0 1.22 30.25 74.32 0 0 3.27 3.59
12:47 2 29.5 31 65,937 0 0 1.16 22.5 84.1 0 0 2.74 3.01
12:41 2 30.1 32 65,906 0.2 0 1.66 57.65 81.46 0 0 3.25 3.57
12:40 2 30.1 32 65,864 0.09 0 1.44 24.83 79.06 0 0 3.23 3.56
12:39 2 29.9 32 65,868 0.24 0 1.6 19.6 75.76 0 0 2.68 2.95
12:38 2 29.8 32 65,849 0.15 0 1.56 19.2 56.55 0 0.71 3.75 4.13
12:37 2 29.7 33 65,857 0.19 0 1.34 15.34 74.73 0 0 2.66 2.92
12:36 2 29.5 33 65,868 0.2 0 1.31 12.35 50.55 0 0 2.64 2.9
12:35 2 29.4 34 65,853 0.13 0 1.32 30.1 82.54 0 0 2.61 2.88
12:34 2 29.2 34 65,827 0.13 0 1.36 15.66 68.45 0 0 2.6 2.86
12:33 2 29 35 65,803 0.12 0 1.39 13.28 68.19 0 0 2.57 2.83
12:32 2 28.8 35 65,799 0.19 0 1.37 13.37 66.19 0 0 2.56 2.81
12:31 2 28.6 35 65,797 0.17 0 1.37 16.78 74.25 0 0 2.56 2.82
12:30 2 28.4 36 65,791 0.2 0 1.34 12.93 60.6 0 0 2.54 2.79